sensor_id;sensor_type;location;lat;lon;timestamp;pressure;altitude;pressure_sealevel;temperature;humidity
63439;BME280;49567;48.958;8.294;2022-10-24T00:01:36;99931.38;;;15.96;90.40
63439;BME280;49567;48.958;8.294;2022-10-24T00:04:02;99929.75;;;15.95;90.38
63439;BME280;49567;48.958;8.294;2022-10-24T00:06:27;99924.59;;;15.93;90.34
63439;BME280;49567;48.958;8.294;2022-10-24T00:08:53;99922.63;;;15.94;90.23
63439;BME280;49567;48.958;8.294;2022-10-24T00:11:24;99919.91;;;15.94;90.23
63439;BME280;49567;48.958;8.294;2022-10-24T00:13:51;99922.38;;;15.95;89.84
63439;BME280;49567;48.958;8.294;2022-10-24T00:16:17;99915.56;;;15.93;90.14
63439;BME280;49567;48.958;8.294;2022-10-24T00:18:43;99918.81;;;15.95;90.12
63439;BME280;49567;48.958;8.294;2022-10-24T00:21:09;99914.97;;;15.96;90.01
63439;BME280;49567;48.958;8.294;2022-10-24T00:23:35;99904.88;;;15.96;89.92
63439;BME280;49567;48.958;8.294;2022-10-24T00:26:00;99896.66;;;15.96;89.89
63439;BME280;49567;48.958;8.294;2022-10-24T00:28:28;99893.72;;;15.93;89.92
63439;BME280;49567;48.958;8.294;2022-10-24T00:30:54;99904.34;;;15.94;89.92
63439;BME280;49567;48.958;8.294;2022-10-24T00:33:19;99899.44;;;15.91;89.66
63439;BME280;49567;48.958;8.294;2022-10-24T00:35:45;99900.03;;;15.88;89.95
63439;BME280;49567;48.958;8.294;2022-10-24T00:38:10;99906.91;;;15.86;89.87
63439;BME280;49567;48.958;8.294;2022-10-24T00:40:36;99908.31;;;15.83;89.93
63439;BME280;49567;48.958;8.294;2022-10-24T00:43:01;99916.50;;;15.83;89.75
63439;BME280;49567;48.958;8.294;2022-10-24T00:47:55;99919.53;;;15.82;89.73
63439;BME280;49567;48.958;8.294;2022-10-24T00:50:21;99913.56;;;15.80;89.77
63439;BME280;49567;48.958;8.294;2022-10-24T00:52:46;99915.75;;;15.78;89.63
63439;BME280;49567;48.958;8.294;2022-10-24T00:55:13;99915.50;;;15.74;89.54
63439;BME280;49567;48.958;8.294;2022-10-24T00:57:44;99919.66;;;15.72;89.52
63439;BME280;49567;48.958;8.294;2022-10-24T01:00:17;99916.09;;;15.71;89.79
63439;BME280;49567;48.958;8.294;2022-10-24T01:02:44;99922.97;;;15.69;89.71
63439;BME280;49567;48.958;8.294;2022-10-24T01:05:10;99917.81;;;15.67;89.84
63439;BME280;49567;48.958;8.294;2022-10-24T01:08:02;99911.22;;;15.68;90.02
63439;BME280;49567;48.958;8.294;2022-10-24T01:16:27;99899.28;;;15.64;89.56
63439;BME280;49567;48.958;8.294;2022-10-24T01:22:21;99897.69;;;15.58;89.73
63439;BME280;49567;48.958;8.294;2022-10-24T01:25:16;99892.75;;;15.60;89.56
63439;BME280;49567;48.958;8.294;2022-10-24T01:30:18;99890.31;;;15.58;89.60
63439;BME280;49567;48.958;8.294;2022-10-24T01:32:50;99885.97;;;15.57;89.54
63439;BME280;49567;48.958;8.294;2022-10-24T01:35:27;99877.47;;;15.59;89.57
63439;BME280;49567;48.958;8.294;2022-10-24T01:38:08;99880.72;;;15.61;89.23
63439;BME280;49567;48.958;8.294;2022-10-24T01:40:42;99871.72;;;15.61;89.39
63439;BME280;49567;48.958;8.294;2022-10-24T01:43:12;99879.91;;;15.61;89.28
63439;BME280;49567;48.958;8.294;2022-10-24T01:45:41;99879.09;;;15.60;89.21
63439;BME280;49567;48.958;8.294;2022-10-24T01:48:11;99875.56;;;15.60;89.11
63439;BME280;49567;48.958;8.294;2022-10-24T01:50:40;99873.91;;;15.58;89.21
63439;BME280;49567;48.958;8.294;2022-10-24T01:53:07;99876.13;;;15.56;89.41
63439;BME280;49567;48.958;8.294;2022-10-24T01:55:35;99882.69;;;15.55;89.29
63439;BME280;49567;48.958;8.294;2022-10-24T01:58:01;99881.59;;;15.56;89.15
63439;BME280;49567;48.958;8.294;2022-10-24T02:00:26;99878.34;;;15.54;89.25
63439;BME280;49567;48.958;8.294;2022-10-24T02:02:55;99880.28;;;15.54;89.09
63439;BME280;49567;48.958;8.294;2022-10-24T02:05:28;99878.63;;;15.53;89.19
63439;BME280;49567;48.958;8.294;2022-10-24T02:07:58;99874.00;;;15.53;89.16
63439;BME280;49567;48.958;8.294;2022-10-24T02:10:28;99876.72;;;15.53;89.09
63439;BME280;49567;48.958;8.294;2022-10-24T02:13:06;99870.44;;;15.53;89.07
63439;BME280;49567;48.958;8.294;2022-10-24T02:15:38;99869.63;;;15.52;89.09
63439;BME280;49567;48.958;8.294;2022-10-24T02:18:06;99877.00;;;15.52;89.19
63439;BME280;49567;48.958;8.294;2022-10-24T02:20:34;99864.47;;;15.51;88.94
63439;BME280;49567;48.958;8.294;2022-10-24T02:23:34;99870.72;;;15.51;89.01
63439;BME280;49567;48.958;8.294;2022-10-24T02:25:59;99868.00;;;15.51;88.87
63439;BME280;49567;48.958;8.294;2022-10-24T02:28:30;99859.53;;;15.53;88.91
63439;BME280;49567;48.958;8.294;2022-10-24T02:31:09;99868.53;;;15.53;89.10
63439;BME280;49567;48.958;8.294;2022-10-24T02:33:38;99867.72;;;15.53;88.94
63439;BME280;49567;48.958;8.294;2022-10-24T02:36:06;99870.44;;;15.53;88.99
63439;BME280;49567;48.958;8.294;2022-10-24T02:38:35;99866.91;;;15.52;89.30
63439;BME280;49567;48.958;8.294;2022-10-24T02:41:04;99858.72;;;15.52;89.11
63439;BME280;49567;48.958;8.294;2022-10-24T02:43:33;99849.69;;;15.52;88.88
63439;BME280;49567;48.958;8.294;2022-10-24T02:45:58;99850.81;;;15.51;88.91
63439;BME280;49567;48.958;8.294;2022-10-24T02:48:29;99841.50;;;15.52;89.04
63439;BME280;49567;48.958;8.294;2022-10-24T02:50:56;99848.59;;;15.53;89.05
63439;BME280;49567;48.958;8.294;2022-10-24T02:53:24;99851.03;;;15.54;89.27
63439;BME280;49567;48.958;8.294;2022-10-24T02:55:49;99859.22;;;15.54;89.11
63439;BME280;49567;48.958;8.294;2022-10-24T02:58:15;99858.66;;;15.57;89.25
63439;BME280;49567;48.958;8.294;2022-10-24T03:00:40;99850.75;;;15.56;88.93
63439;BME280;49567;48.958;8.294;2022-10-24T03:03:06;99846.38;;;15.55;89.16
63439;BME280;49567;48.958;8.294;2022-10-24T03:05:31;99853.75;;;15.54;89.20
63439;BME280;49567;48.958;8.294;2022-10-24T03:07:56;99854.28;;;15.56;89.11
63439;BME280;49567;48.958;8.294;2022-10-24T03:10:22;99860.25;;;15.58;88.90
63439;BME280;49567;48.958;8.294;2022-10-24T03:12:47;99867.63;;;15.58;89.00
63439;BME280;49567;48.958;8.294;2022-10-24T03:15:12;99873.91;;;15.58;88.84
63439;BME280;49567;48.958;8.294;2022-10-24T03:17:38;99876.38;;;15.60;88.65
63439;BME280;49567;48.958;8.294;2022-10-24T03:20:04;99889.72;;;15.62;88.58
63439;BME280;49567;48.958;8.294;2022-10-24T03:22:29;99896.53;;;15.64;88.41
63439;BME280;49567;48.958;8.294;2022-10-24T03:24:54;99884.50;;;15.65;88.40
63439;BME280;49567;48.958;8.294;2022-10-24T03:27:20;99886.41;;;15.65;88.55
63439;BME280;49567;48.958;8.294;2022-10-24T03:29:45;99893.00;;;15.64;88.69
63439;BME280;49567;48.958;8.294;2022-10-24T03:32:10;99886.72;;;15.63;88.77
63439;BME280;49567;48.958;8.294;2022-10-24T03:34:35;99888.34;;;15.64;88.63
63439;BME280;49567;48.958;8.294;2022-10-24T03:37:01;99875.78;;;15.63;88.87
63439;BME280;49567;48.958;8.294;2022-10-24T03:39:26;99881.25;;;15.63;88.73
63439;BME280;49567;48.958;8.294;2022-10-24T03:41:52;99890.03;;;15.60;88.97
63439;BME280;49567;48.958;8.294;2022-10-24T03:44:17;99883.75;;;15.60;88.84
63439;BME280;49567;48.958;8.294;2022-10-24T03:46:42;99884.84;;;15.58;89.10
63439;BME280;49567;48.958;8.294;2022-10-24T03:49:07;99882.69;;;15.55;89.11
63439;BME280;49567;48.958;8.294;2022-10-24T03:51:33;99887.09;;;15.51;89.25
63439;BME280;49567;48.958;8.294;2022-10-24T03:53:58;99887.09;;;15.51;89.30
63439;BME280;49567;48.958;8.294;2022-10-24T03:56:23;99880.84;;;15.51;89.45
63439;BME280;49567;48.958;8.294;2022-10-24T03:58:49;99881.66;;;15.51;89.42
63439;BME280;49567;48.958;8.294;2022-10-24T04:01:14;99880.03;;;15.50;89.29
63439;BME280;49567;48.958;8.294;2022-10-24T04:03:43;99889.06;;;15.51;89.54
63439;BME280;49567;48.958;8.294;2022-10-24T04:06:08;99902.72;;;15.51;89.49
63439;BME280;49567;48.958;8.294;2022-10-24T04:08:34;99899.97;;;15.51;89.23
63439;BME280;49567;48.958;8.294;2022-10-24T04:10:59;99906.22;;;15.51;89.06
63439;BME280;49567;48.958;8.294;2022-10-24T04:13:24;99911.41;;;15.53;88.92
63439;BME280;49567;48.958;8.294;2022-10-24T04:15:49;99920.41;;;15.53;89.12
63439;BME280;49567;48.958;8.294;2022-10-24T04:18:15;99918.19;;;15.55;89.16
63439;BME280;49567;48.958;8.294;2022-10-24T04:20:40;99924.47;;;15.56;89.11
63439;BME280;49567;48.958;8.294;2022-10-24T04:23:05;99925.00;;;15.58;89.16
63439;BME280;49567;48.958;8.294;2022-10-24T04:25:31;99919.53;;;15.58;89.34
63439;BME280;49567;48.958;8.294;2022-10-24T04:27:56;99917.84;;;15.62;89.01
63439;BME280;49567;48.958;8.294;2022-10-24T04:30:21;99918.16;;;15.61;89.11
63439;BME280;49567;48.958;8.294;2022-10-24T04:32:46;99908.59;;;15.58;89.40
63439;BME280;49567;48.958;8.294;2022-10-24T04:35:12;99902.63;;;15.56;89.52
63439;BME280;49567;48.958;8.294;2022-10-24T04:37:38;99899.91;;;15.56;89.64
63439;BME280;49567;48.958;8.294;2022-10-24T04:40:04;99893.63;;;15.55;89.75
63439;BME280;49567;48.958;8.294;2022-10-24T04:42:29;99901.22;;;15.58;89.60
63439;BME280;49567;48.958;8.294;2022-10-24T04:44:54;99909.97;;;15.61;89.69
63439;BME280;49567;48.958;8.294;2022-10-24T04:47:20;99947.06;;;15.62;89.71
63439;BME280;49567;48.958;8.294;2022-10-24T04:49:45;99928.84;;;15.57;89.61
63439;BME280;49567;48.958;8.294;2022-10-24T04:52:10;99923.03;;;15.64;89.78
63439;BME280;49567;48.958;8.294;2022-10-24T04:54:36;99926.75;;;15.73;89.48
63439;BME280;49567;48.958;8.294;2022-10-24T04:57:01;99930.47;;;15.82;89.21
63439;BME280;49567;48.958;8.294;2022-10-24T04:59:26;99929.28;;;15.88;89.00
63439;BME280;49567;48.958;8.294;2022-10-24T05:01:52;99937.72;;;15.91;89.18
63439;BME280;49567;48.958;8.294;2022-10-24T05:04:19;99927.81;;;15.95;88.88
63439;BME280;49567;48.958;8.294;2022-10-24T05:06:44;99940.09;;;15.98;88.83
63439;BME280;49567;48.958;8.294;2022-10-24T05:09:10;99937.06;;;15.99;88.71
63439;BME280;49567;48.958;8.294;2022-10-24T05:11:35;99946.88;;;16.00;88.70
63439;BME280;49567;48.958;8.294;2022-10-24T05:14:01;99949.63;;;16.00;88.70
63439;BME280;49567;48.958;8.294;2022-10-24T05:16:26;99957.31;;;15.98;88.86
63439;BME280;49567;48.958;8.294;2022-10-24T05:18:51;99951.00;;;15.98;89.05
63439;BME280;49567;48.958;8.294;2022-10-24T05:21:17;99959.81;;;15.95;89.05
63439;BME280;49567;48.958;8.294;2022-10-24T05:23:42;99945.31;;;15.94;89.23
63439;BME280;49567;48.958;8.294;2022-10-24T05:26:07;99953.53;;;15.94;89.17
63439;BME280;49567;48.958;8.294;2022-10-24T05:28:33;99952.16;;;15.97;89.01
63439;BME280;49567;48.958;8.294;2022-10-24T05:30:58;99951.31;;;15.96;89.24
63439;BME280;49567;48.958;8.294;2022-10-24T05:33:24;99954.28;;;16.00;89.09
63439;BME280;49567;48.958;8.294;2022-10-24T05:35:50;99947.94;;;16.04;88.82
63439;BME280;49567;48.958;8.294;2022-10-24T05:38:15;99948.97;;;16.08;88.75
63439;BME280;49567;48.958;8.294;2022-10-24T05:40:41;99933.91;;;16.11;88.57
63439;BME280;49567;48.958;8.294;2022-10-24T05:43:06;99951.34;;;16.15;88.49
63439;BME280;49567;48.958;8.294;2022-10-24T05:45:31;99949.34;;;16.21;88.51
63439;BME280;49567;48.958;8.294;2022-10-24T05:47:57;99935.09;;;16.24;88.58
63439;BME280;49567;48.958;8.294;2022-10-24T05:50:22;99927.72;;;16.24;88.48
63439;BME280;49567;48.958;8.294;2022-10-24T05:52:47;99930.16;;;16.26;88.47
63439;BME280;49567;48.958;8.294;2022-10-24T05:55:13;99929.25;;;16.30;88.28
63439;BME280;49567;48.958;8.294;2022-10-24T05:57:38;99938.28;;;16.31;88.24
63439;BME280;49567;48.958;8.294;2022-10-24T06:00:09;99959.91;;;16.27;88.28
63439;BME280;49567;48.958;8.294;2022-10-24T06:02:35;99960.75;;;16.28;88.58
63439;BME280;49567;48.958;8.294;2022-10-24T06:05:00;99963.47;;;16.28;88.48
63439;BME280;49567;48.958;8.294;2022-10-24T06:07:26;99967.34;;;16.27;88.71
63439;BME280;49567;48.958;8.294;2022-10-24T06:09:51;99968.94;;;16.28;88.92
63439;BME280;49567;48.958;8.294;2022-10-24T06:12:16;99979.59;;;16.29;88.78
63439;BME280;49567;48.958;8.294;2022-10-24T06:14:42;99977.97;;;16.28;88.85
63439;BME280;49567;48.958;8.294;2022-10-24T06:17:08;99981.00;;;16.27;89.16
63439;BME280;49567;48.958;8.294;2022-10-24T06:19:36;99981.78;;;16.27;89.19
63439;BME280;49567;48.958;8.294;2022-10-24T06:22:02;99976.31;;;16.27;89.13
63439;BME280;49567;48.958;8.294;2022-10-24T06:24:28;99983.75;;;16.27;89.23
63439;BME280;49567;48.958;8.294;2022-10-24T06:26:53;99997.41;;;16.27;89.35
63439;BME280;49567;48.958;8.294;2022-10-24T06:29:18;100006.34;;;16.32;89.09
63439;BME280;49567;48.958;8.294;2022-10-24T06:31:44;100009.31;;;16.36;88.91
63439;BME280;49567;48.958;8.294;2022-10-24T06:34:09;100004.34;;;16.38;88.91
63439;BME280;49567;48.958;8.294;2022-10-24T06:36:34;100011.38;;;16.44;88.61
63439;BME280;49567;48.958;8.294;2022-10-24T06:39:01;100015.66;;;16.50;87.76
63439;BME280;49567;48.958;8.294;2022-10-24T06:41:26;100020.34;;;16.49;87.49
63439;BME280;49567;48.958;8.294;2022-10-24T06:43:51;100025.81;;;16.49;87.21
63439;BME280;49567;48.958;8.294;2022-10-24T06:46:21;100020.03;;;16.51;86.91
63439;BME280;49567;48.958;8.294;2022-10-24T06:48:48;100021.13;;;16.50;86.66
63439;BME280;49567;48.958;8.294;2022-10-24T06:51:16;100023.09;;;16.49;86.45
63439;BME280;49567;48.958;8.294;2022-10-24T06:53:42;100017.63;;;16.49;86.55
63439;BME280;49567;48.958;8.294;2022-10-24T06:56:07;100025.00;;;16.49;86.27
63439;BME280;49567;48.958;8.294;2022-10-24T06:58:36;100028.56;;;16.49;86.05
63439;BME280;49567;48.958;8.294;2022-10-24T07:01:14;100027.44;;;16.50;86.09
63439;BME280;49567;48.958;8.294;2022-10-24T07:03:40;100026.09;;;16.48;86.17
63439;BME280;49567;48.958;8.294;2022-10-24T07:06:11;100009.69;;;16.48;85.87
63439;BME280;49567;48.958;8.294;2022-10-24T07:08:39;100012.16;;;16.49;86.15
63439;BME280;49567;48.958;8.294;2022-10-24T07:11:04;100011.03;;;16.50;86.23
63439;BME280;49567;48.958;8.294;2022-10-24T07:13:29;100024.41;;;16.52;86.29
63439;BME280;49567;48.958;8.294;2022-10-24T07:15:55;100023.53;;;16.56;86.09
63439;BME280;49567;48.958;8.294;2022-10-24T07:18:20;100030.16;;;16.55;86.21
63439;BME280;49567;48.958;8.294;2022-10-24T07:20:46;100036.44;;;16.56;86.22
63439;BME280;49567;48.958;8.294;2022-10-24T07:23:11;100039.41;;;16.54;86.20
63439;BME280;49567;48.958;8.294;2022-10-24T07:25:38;100042.16;;;16.54;86.63
63439;BME280;49567;48.958;8.294;2022-10-24T07:28:04;100038.56;;;16.59;86.35
63439;BME280;49567;48.958;8.294;2022-10-24T07:30:29;100036.06;;;16.63;86.15
63439;BME280;49567;48.958;8.294;2022-10-24T07:32:55;100038.72;;;16.68;86.18
63439;BME280;49567;48.958;8.294;2022-10-24T07:35:20;100036.72;;;16.73;85.93
63439;BME280;49567;48.958;8.294;2022-10-24T07:37:46;100043.00;;;16.74;85.99
63439;BME280;49567;48.958;8.294;2022-10-24T07:40:11;100052.53;;;16.76;86.08
63439;BME280;49567;48.958;8.294;2022-10-24T07:42:36;100047.28;;;16.80;86.13
63439;BME280;49567;48.958;8.294;2022-10-24T07:45:02;100042.84;;;16.84;85.69
63439;BME280;49567;48.958;8.294;2022-10-24T07:47:28;100032.22;;;16.82;85.79
63439;BME280;49567;48.958;8.294;2022-10-24T07:49:53;100034.75;;;16.79;86.04
63439;BME280;49567;48.958;8.294;2022-10-24T07:52:19;100032.00;;;16.79;86.16
63439;BME280;49567;48.958;8.294;2022-10-24T07:54:44;100028.44;;;16.78;86.15
63439;BME280;49567;48.958;8.294;2022-10-24T07:57:09;100037.97;;;16.81;86.35
63439;BME280;49567;48.958;8.294;2022-10-24T07:59:34;100034.97;;;16.82;86.07
63439;BME280;49567;48.958;8.294;2022-10-24T08:02:00;100034.16;;;16.82;86.28
63439;BME280;49567;48.958;8.294;2022-10-24T08:04:25;100031.84;;;16.89;85.92
63439;BME280;49567;48.958;8.294;2022-10-24T08:06:50;100029.25;;;16.97;85.51
63439;BME280;49567;48.958;8.294;2022-10-24T08:09:15;100033.63;;;16.98;85.94
63439;BME280;49567;48.958;8.294;2022-10-24T08:11:42;100035.75;;;17.01;85.85
63439;BME280;49567;48.958;8.294;2022-10-24T08:14:07;100018.75;;;17.04;85.71
63439;BME280;49567;48.958;8.294;2022-10-24T08:16:32;100023.13;;;17.05;85.62
63439;BME280;49567;48.958;8.294;2022-10-24T08:18:58;100028.88;;;17.04;85.69
63439;BME280;49567;48.958;8.294;2022-10-24T08:21:23;100034.66;;;17.02;85.88
63439;BME280;49567;48.958;8.294;2022-10-24T08:23:51;100023.19;;;17.00;86.02
63439;BME280;49567;48.958;8.294;2022-10-24T08:26:19;100022.34;;;17.00;86.20
63439;BME280;49567;48.958;8.294;2022-10-24T08:28:46;100022.34;;;17.00;86.34
63439;BME280;49567;48.958;8.294;2022-10-24T08:31:16;100025.91;;;17.00;86.40
63439;BME280;49567;48.958;8.294;2022-10-24T08:33:42;100031.38;;;17.00;86.45
63439;BME280;49567;48.958;8.294;2022-10-24T08:36:33;100031.94;;;17.02;86.45
63439;BME280;49567;48.958;8.294;2022-10-24T08:39:00;100024.72;;;17.06;86.33
63439;BME280;49567;48.958;8.294;2022-10-24T08:41:44;100016.22;;;17.08;86.38
63439;BME280;49567;48.958;8.294;2022-10-24T08:44:18;100020.59;;;17.09;86.43
63439;BME280;49567;48.958;8.294;2022-10-24T08:46:46;100019.78;;;17.08;86.27
63439;BME280;49567;48.958;8.294;2022-10-24T08:55:03;100033.00;;;17.20;86.08
63439;BME280;49567;48.958;8.294;2022-10-24T08:57:33;100032.09;;;17.25;85.95
63439;BME280;49567;48.958;8.294;2022-10-24T09:00:03;100029.59;;;17.28;86.05
63439;BME280;49567;48.958;8.294;2022-10-24T09:02:35;100038.81;;;17.32;86.12
63439;BME280;49567;48.958;8.294;2022-10-24T09:07:36;100027.38;;;17.44;85.66
63439;BME280;49567;48.958;8.294;2022-10-24T09:10:13;100040.38;;;17.52;85.46
63439;BME280;49567;48.958;8.294;2022-10-24T09:12:40;100046.94;;;17.56;85.31
63439;BME280;49567;48.958;8.294;2022-10-24T09:15:28;100035.28;;;17.64;84.73
63439;BME280;49567;48.958;8.294;2022-10-24T09:17:55;100040.97;;;17.68;84.75
63439;BME280;49567;48.958;8.294;2022-10-24T09:20:29;100040.59;;;17.74;84.49
63439;BME280;49567;48.958;8.294;2022-10-24T09:23:00;100051.16;;;17.81;84.39
63439;BME280;49567;48.958;8.294;2022-10-24T09:25:31;100059.06;;;17.82;84.51
63439;BME280;49567;48.958;8.294;2022-10-24T09:28:00;100063.03;;;17.90;84.15
63439;BME280;49567;48.958;8.294;2022-10-24T09:30:26;100060.50;;;17.93;84.15
63439;BME280;49567;48.958;8.294;2022-10-24T09:32:57;100061.81;;;17.96;83.95
63439;BME280;49567;48.958;8.294;2022-10-24T09:35:25;100068.00;;;18.01;83.65
63439;BME280;49567;48.958;8.294;2022-10-24T09:37:54;100079.94;;;18.10;83.46
63439;BME280;49567;48.958;8.294;2022-10-24T09:42:54;100081.72;;;18.15;83.45
63439;BME280;49567;48.958;8.294;2022-10-24T09:48:01;100085.28;;;18.15;83.79
63439;BME280;49567;48.958;8.294;2022-10-24T09:50:28;100085.81;;;18.18;83.52
63439;BME280;49567;48.958;8.294;2022-10-24T09:52:57;100085.22;;;18.21;83.51
63439;BME280;49567;48.958;8.294;2022-10-24T09:55:25;100078.78;;;18.25;83.32
63439;BME280;49567;48.958;8.294;2022-10-24T09:57:54;100089.78;;;18.25;83.44
63439;BME280;49567;48.958;8.294;2022-10-24T10:03:19;100085.72;;;18.23;83.35
63439;BME280;49567;48.958;8.294;2022-10-24T10:05:50;100083.25;;;18.21;83.32
63439;BME280;49567;48.958;8.294;2022-10-24T10:08:47;100097.28;;;18.20;83.35
63439;BME280;49567;48.958;8.294;2022-10-24T10:11:13;100091.81;;;18.20;83.44
63439;BME280;49567;48.958;8.294;2022-10-24T10:13:47;100088.16;;;18.24;83.52
63439;BME280;49567;48.958;8.294;2022-10-24T10:16:22;100094.16;;;18.26;83.43
63439;BME280;49567;48.958;8.294;2022-10-24T10:18:47;100102.06;;;18.28;83.55
63439;BME280;49567;48.958;8.294;2022-10-24T10:21:17;100098.00;;;18.25;83.50
63439;BME280;49567;48.958;8.294;2022-10-24T10:23:44;100101.88;;;18.24;83.60
63439;BME280;49567;48.958;8.294;2022-10-24T10:31:20;100089.69;;;18.44;83.18
63439;BME280;49567;48.958;8.294;2022-10-24T10:36:47;100092.78;;;18.92;81.92
63439;BME280;49567;48.958;8.294;2022-10-24T10:42:55;100109.72;;;19.07;80.76
63439;BME280;49567;48.958;8.294;2022-10-24T10:54:02;100122.94;;;19.19;79.64
63439;BME280;49567;48.958;8.294;2022-10-24T10:56:44;100135.38;;;19.03;80.16
63439;BME280;49567;48.958;8.294;2022-10-24T10:59:27;100137.41;;;18.97;79.84
63439;BME280;49567;48.958;8.294;2022-10-24T11:10:02;100129.06;;;19.16;77.02
63439;BME280;49567;48.958;8.294;2022-10-24T11:12:41;100132.03;;;19.06;77.43
63439;BME280;49567;48.958;8.294;2022-10-24T11:15:17;100129.47;;;19.09;77.07
63439;BME280;49567;48.958;8.294;2022-10-24T11:18:17;100132.91;;;19.15;76.85
63439;BME280;49567;48.958;8.294;2022-10-24T11:20:44;100133.31;;;19.22;76.24
63439;BME280;49567;48.958;8.294;2022-10-24T11:23:16;100127.06;;;19.30;75.47
63439;BME280;49567;48.958;8.294;2022-10-24T11:25:50;100131.13;;;19.33;75.62
63439;BME280;49567;48.958;8.294;2022-10-24T11:31:16;100126.63;;;19.37;75.23
63439;BME280;49567;48.958;8.294;2022-10-24T11:33:52;100127.44;;;19.37;74.96
63439;BME280;49567;48.958;8.294;2022-10-24T11:36:32;100124.91;;;19.41;74.57
63439;BME280;49567;48.958;8.294;2022-10-24T11:39:08;100127.75;;;19.49;74.25
63439;BME280;49567;48.958;8.294;2022-10-24T11:44:53;100111.56;;;19.48;73.97
63439;BME280;49567;48.958;8.294;2022-10-24T11:50:38;100110.94;;;19.51;73.15
63439;BME280;49567;48.958;8.294;2022-10-24T11:52:41;100095.25;;;19.51;72.96
63439;BME280;49567;48.958;8.294;2022-10-24T11:55:18;100091.06;;;19.54;72.97
63439;BME280;49567;48.958;8.294;2022-10-24T11:57:47;100078.44;;;19.53;72.85
63439;BME280;49567;48.958;8.294;2022-10-24T12:00:30;100089.63;;;19.56;72.40
63439;BME280;49567;48.958;8.294;2022-10-24T12:05:51;100085.97;;;19.69;71.73
63439;BME280;49567;48.958;8.294;2022-10-24T12:11:12;100072.53;;;19.90;71.36
63439;BME280;49567;48.958;8.294;2022-10-24T12:13:57;100068.66;;;19.91;70.91
63439;BME280;49567;48.958;8.294;2022-10-24T12:19:16;100069.59;;;19.87;71.38
63439;BME280;49567;48.958;8.294;2022-10-24T12:21:51;100073.13;;;19.79;71.46
63439;BME280;49567;48.958;8.294;2022-10-24T12:24:28;100064.31;;;19.68;71.54
63439;BME280;49567;48.958;8.294;2022-10-24T12:26:57;100052.97;;;19.61;71.83
63439;BME280;49567;48.958;8.294;2022-10-24T12:29:25;100058.44;;;19.61;71.60
63439;BME280;49567;48.958;8.294;2022-10-24T12:31:51;100059.13;;;19.66;71.44
63439;BME280;49567;48.958;8.294;2022-10-24T12:37:09;100065.63;;;19.71;71.41
63439;BME280;49567;48.958;8.294;2022-10-24T12:39:40;100074.03;;;19.65;71.01
63439;BME280;49567;48.958;8.294;2022-10-24T12:47:28;100056.44;;;19.75;70.82
63439;BME280;49567;48.958;8.294;2022-10-24T12:49:54;100056.75;;;19.74;70.78
63439;BME280;49567;48.958;8.294;2022-10-24T12:54:54;100059.63;;;19.68;71.04
63439;BME280;49567;48.958;8.294;2022-10-24T12:57:21;100064.97;;;19.65;71.51
63439;BME280;49567;48.958;8.294;2022-10-24T12:59:59;100062.50;;;19.63;71.66
63439;BME280;49567;48.958;8.294;2022-10-24T13:05:16;100061.69;;;19.63;71.85
63439;BME280;49567;48.958;8.294;2022-10-24T13:08:03;100055.41;;;19.62;71.90
63439;BME280;49567;48.958;8.294;2022-10-24T13:21:45;100045.16;;;19.54;71.29
63439;BME280;49567;48.958;8.294;2022-10-24T13:26:41;100050.22;;;19.61;70.48
63439;BME280;49567;48.958;8.294;2022-10-24T13:30:00;100048.50;;;19.74;70.10
63439;BME280;49567;48.958;8.294;2022-10-24T13:40:14;100054.66;;;19.79;69.34
63439;BME280;49567;48.958;8.294;2022-10-24T13:43:13;100056.75;;;19.74;69.83
63439;BME280;49567;48.958;8.294;2022-10-24T13:45:47;100064.00;;;19.69;69.78
63439;BME280;49567;48.958;8.294;2022-10-24T13:48:22;100066.94;;;19.73;69.75
63439;BME280;49567;48.958;8.294;2022-10-24T13:51:17;100066.63;;;19.75;69.72
63439;BME280;49567;48.958;8.294;2022-10-24T13:53:47;100074.72;;;19.80;69.74
63439;BME280;49567;48.958;8.294;2022-10-24T13:56:14;100070.41;;;19.87;69.24
63439;BME280;49567;48.958;8.294;2022-10-24T13:58:42;100071.59;;;19.95;68.86
63439;BME280;49567;48.958;8.294;2022-10-24T14:01:20;100059.31;;;20.01;68.94
63439;BME280;49567;48.958;8.294;2022-10-24T14:03:47;100071.94;;;20.02;68.97
63439;BME280;49567;48.958;8.294;2022-10-24T14:06:13;100063.69;;;20.02;69.13
63439;BME280;49567;48.958;8.294;2022-10-24T14:08:47;100077.56;;;19.97;69.12
63439;BME280;49567;48.958;8.294;2022-10-24T14:11:20;100068.31;;;19.93;69.49
63439;BME280;49567;48.958;8.294;2022-10-24T14:13:58;100075.44;;;19.85;69.55
63439;BME280;49567;48.958;8.294;2022-10-24T14:16:29;100071.50;;;19.78;69.76
63439;BME280;49567;48.958;8.294;2022-10-24T14:21:40;100072.75;;;19.72;69.34
63439;BME280;49567;48.958;8.294;2022-10-24T14:24:13;100066.00;;;19.78;69.27
63439;BME280;49567;48.958;8.294;2022-10-24T14:26:39;100070.44;;;19.96;68.70
63439;BME280;49567;48.958;8.294;2022-10-24T14:29:20;100068.59;;;20.13;68.41
63439;BME280;49567;48.958;8.294;2022-10-24T14:31:56;100058.06;;;20.15;67.59
63439;BME280;49567;48.958;8.294;2022-10-24T14:34:22;100058.97;;;20.02;67.80
63439;BME280;49567;48.958;8.294;2022-10-24T14:36:48;100060.41;;;19.91;68.20
63439;BME280;49567;48.958;8.294;2022-10-24T14:39:18;100067.00;;;19.82;68.73
63439;BME280;49567;48.958;8.294;2022-10-24T14:43:18;100071.88;;;19.40;69.80
63439;BME280;49567;48.958;8.294;2022-10-24T14:46:05;100082.31;;;19.30;70.07
63439;BME280;49567;48.958;8.294;2022-10-24T14:48:31;100067.03;;;19.24;70.29
63439;BME280;49567;48.958;8.294;2022-10-24T14:51:05;100075.28;;;19.24;69.76
63439;BME280;49567;48.958;8.294;2022-10-24T14:53:35;100077.72;;;19.25;70.01
63439;BME280;49567;48.958;8.294;2022-10-24T14:56:14;100087.09;;;19.24;70.26
63439;BME280;49567;48.958;8.294;2022-10-24T14:58:41;100077.34;;;19.18;70.43
63439;BME280;49567;48.958;8.294;2022-10-24T15:01:15;100081.00;;;19.13;70.49